createdAt,value
2017-08-16T00:02:04.437Z,100935.02
2017-08-16T00:04:35.420Z,100931.70
2017-08-16T00:07:06.422Z,100922.73
2017-08-16T00:09:37.387Z,100930.89
2017-08-16T00:12:08.750Z,100921.57
2017-08-16T00:14:40.089Z,100913.91
2017-08-16T00:17:11.432Z,100929.02
2017-08-16T00:19:42.401Z,100929.65
2017-08-16T00:22:13.822Z,100932.44
2017-08-16T00:24:45.279Z,100939.59
2017-08-16T00:27:16.224Z,100943.24
2017-08-16T00:29:47.296Z,100946.74
2017-08-16T00:32:18.323Z,100949.08
2017-08-16T00:34:49.332Z,100946.31
2017-08-16T00:37:20.386Z,100948.37
2017-08-16T00:39:52.186Z,100946.13
2017-08-16T00:42:23.373Z,100952.58
2017-08-16T00:44:56.204Z,100940.81
2017-08-16T00:47:27.626Z,100944.39
2017-08-16T00:50:00.768Z,100942.54
2017-08-16T00:52:32.069Z,100944.02
2017-08-16T00:55:03.459Z,100931.97
2017-08-16T00:57:34.817Z,100931.55
2017-08-16T01:00:11.163Z,100915.89
2017-08-16T01:02:42.209Z,100919.55
2017-08-16T01:05:14.211Z,100919.19
2017-08-16T01:07:45.229Z,100917.56
2017-08-16T01:10:17.129Z,100927.73
2017-08-16T01:12:48.124Z,100928.72
2017-08-16T01:15:19.102Z,100934.55
2017-08-16T01:17:50.076Z,100941.02
2017-08-16T01:20:22.208Z,100938.97
2017-08-16T01:22:54.461Z,100945.73
2017-08-16T01:25:25.446Z,100944.45
2017-08-16T01:27:58.168Z,100950.89
2017-08-16T01:30:29.270Z,100958.47
2017-08-16T01:33:00.627Z,100957.72
2017-08-16T01:35:31.634Z,100959.01
2017-08-16T01:38:03.658Z,100963.00
2017-08-16T01:40:34.979Z,100964.34
2017-08-16T01:43:05.929Z,100962.77
2017-08-16T01:45:37.285Z,100969.02
2017-08-16T01:48:09.765Z,100956.05
2017-08-16T01:50:41.010Z,100956.19
2017-08-16T01:53:11.985Z,100955.05
2017-08-16T01:55:42.998Z,100959.19
2017-08-16T01:58:14.850Z,100960.00
2017-08-16T02:00:46.313Z,100957.76
2017-08-16T02:03:17.309Z,100956.91
2017-08-16T02:05:48.625Z,100962.19
2017-08-16T02:08:22.228Z,100963.23
2017-08-16T02:10:54.825Z,100959.84
2017-08-16T02:13:25.844Z,100970.27
2017-08-16T02:15:58.186Z,100966.68
2017-08-16T02:18:29.178Z,100968.89
2017-08-16T02:21:00.510Z,100960.89
2017-08-16T02:23:32.085Z,100948.49
2017-08-16T02:26:04.301Z,100944.10
2017-08-16T02:28:35.607Z,100950.52
2017-08-16T02:31:07.397Z,100956.47
2017-08-16T02:33:38.747Z,100948.17
2017-08-16T02:36:10.089Z,100949.45
2017-08-16T02:38:41.582Z,100956.13
2017-08-16T02:41:12.600Z,100973.61
2017-08-16T02:43:43.575Z,100976.84
2017-08-16T02:46:17.101Z,100984.86
2017-08-16T02:48:48.461Z,100986.66
2017-08-16T02:51:19.506Z,100989.55
2017-08-16T02:53:51.033Z,100988.50
2017-08-16T02:56:22.105Z,100982.89
2017-08-16T02:58:54.213Z,100981.80
2017-08-16T03:01:25.561Z,100973.33
2017-08-16T03:03:58.685Z,100966.84
2017-08-16T03:06:29.701Z,100968.50
2017-08-16T03:09:00.982Z,100974.73
2017-08-16T03:11:35.555Z,100972.87
2017-08-16T03:14:08.288Z,100966.01
2017-08-16T03:16:39.546Z,100966.42
2017-08-16T03:19:11.141Z,100959.08
2017-08-16T03:21:42.542Z,100962.78
2017-08-16T03:24:14.683Z,100960.61
2017-08-16T03:26:46.110Z,100969.93
2017-08-16T03:29:17.151Z,100966.55
2017-08-16T03:31:48.222Z,100963.69
2017-08-16T03:34:19.606Z,100963.64
2017-08-16T03:36:50.819Z,100969.08
2017-08-16T03:39:21.893Z,100967.15
2017-08-16T03:41:53.812Z,100959.38
2017-08-16T03:44:25.251Z,100966.77
2017-08-16T03:46:58.406Z,100966.67
2017-08-16T03:49:29.641Z,100972.47
2017-08-16T03:52:03.268Z,100974.23
2017-08-16T03:54:34.286Z,100978.52
2017-08-16T03:57:05.319Z,100980.34
2017-08-16T03:59:36.674Z,100983.48
2017-08-16T04:02:07.773Z,100987.17
2017-08-16T04:04:38.804Z,100985.97
2017-08-16T04:07:10.314Z,100994.73
2017-08-16T04:09:41.383Z,101000.91
2017-08-16T04:12:14.617Z,100999.33
2017-08-16T04:14:45.669Z,101002.84
2017-08-16T04:17:16.726Z,101005.98
2017-08-16T04:19:47.762Z,101001.45
2017-08-16T04:22:20.132Z,100996.68
2017-08-16T04:24:51.178Z,100988.94
2017-08-16T04:27:22.206Z,100991.66
2017-08-16T04:29:55.508Z,100994.99
2017-08-16T04:32:26.555Z,100989.77
2017-08-16T04:34:59.137Z,101002.86
2017-08-16T04:37:30.614Z,101005.57
2017-08-16T04:40:04.147Z,101012.05
2017-08-16T04:42:35.153Z,101015.97
2017-08-16T04:45:06.682Z,101022.45
2017-08-16T04:47:37.752Z,101024.44
2017-08-16T04:50:09.847Z,101031.77
2017-08-16T04:52:41.186Z,101024.69
2017-08-16T04:55:12.434Z,101027.67
2017-08-16T04:57:43.505Z,101024.10
2017-08-16T05:00:15.900Z,101018.24
2017-08-16T05:02:47.441Z,101014.14
2017-08-16T05:05:18.478Z,101020.37
2017-08-16T05:07:49.634Z,101021.77
2017-08-16T05:10:20.723Z,101029.08
2017-08-16T05:12:52.867Z,101028.60
2017-08-16T05:15:24.021Z,101033.36
2017-08-16T05:17:57.687Z,101027.67
2017-08-16T05:20:28.723Z,101023.98
2017-08-16T05:23:01.151Z,101025.87
2017-08-16T05:25:32.431Z,101038.55
2017-08-16T05:28:05.282Z,101032.83
2017-08-16T05:30:36.359Z,101034.98
2017-08-16T05:33:07.506Z,101033.84
2017-08-16T05:35:38.572Z,101038.37
2017-08-16T05:38:12.114Z,101041.98
2017-08-16T05:40:43.167Z,101042.55
2017-08-16T05:43:14.149Z,101043.36
2017-08-16T05:45:45.220Z,101049.08
2017-08-16T05:48:16.693Z,101050.55
2017-08-16T05:50:47.695Z,101055.95
2017-08-16T05:53:18.741Z,101052.48
2017-08-16T05:55:50.104Z,101051.34
2017-08-16T05:58:21.850Z,101047.56
2017-08-16T06:00:53.141Z,101049.73
2017-08-16T06:03:24.734Z,101050.63
2017-08-16T06:05:57.474Z,101047.55
2017-08-16T06:08:28.515Z,101043.87
2017-08-16T06:11:01.871Z,101044.30
2017-08-16T06:13:32.849Z,101048.53
2017-08-16T06:16:04.917Z,101047.27
2017-08-16T06:18:36.431Z,101057.13
2017-08-16T06:21:07.459Z,101052.77
2017-08-16T06:23:38.485Z,101055.94
2017-08-16T06:26:10.014Z,101052.95
2017-08-16T06:28:41.274Z,101050.95
2017-08-16T06:31:12.301Z,101048.27
2017-08-16T06:33:43.826Z,101045.11
2017-08-16T06:36:15.476Z,101054.84
2017-08-16T06:38:46.469Z,101045.11
2017-08-16T06:41:17.922Z,101047.30
2017-08-16T06:43:48.913Z,101053.58
2017-08-16T06:46:20.993Z,101051.80
2017-08-16T06:48:51.972Z,101056.95
2017-08-16T06:51:23.026Z,101061.55
2017-08-16T06:53:55.936Z,101062.98
2017-08-16T06:56:26.979Z,101056.12
2017-08-16T06:59:00.069Z,101060.91
2017-08-16T07:01:31.132Z,101068.83
2017-08-16T07:04:04.208Z,101065.34
2017-08-16T07:06:35.213Z,101075.38
2017-08-16T07:09:06.673Z,101072.36
2017-08-16T07:11:38.009Z,101078.81
2017-08-16T07:14:09.196Z,101075.25
2017-08-16T07:16:40.671Z,101077.59
2017-08-16T07:19:11.675Z,101079.86
2017-08-16T07:21:42.653Z,101079.19
2017-08-16T07:24:15.370Z,101077.84
2017-08-16T07:26:46.823Z,101070.72
2017-08-16T07:29:17.798Z,101081.58
2017-08-16T07:31:48.949Z,101082.53
2017-08-16T07:34:21.000Z,101082.59
2017-08-16T07:36:52.011Z,101072.98
2017-08-16T07:39:23.018Z,101079.55
2017-08-16T07:41:55.088Z,101082.88
2017-08-16T07:44:26.237Z,101081.79
2017-08-16T07:46:59.767Z,101084.92
2017-08-16T07:49:31.065Z,101075.78
2017-08-16T07:52:04.185Z,101088.63
2017-08-16T07:54:35.208Z,101091.72
2017-08-16T07:57:06.266Z,101089.12
2017-08-16T07:59:37.226Z,101090.52
2017-08-16T08:02:08.534Z,101093.25
2017-08-16T08:04:39.956Z,101092.13
2017-08-16T08:07:10.953Z,101092.22
2017-08-16T08:09:42.080Z,101094.25
2017-08-16T08:12:13.851Z,101086.98
2017-08-16T08:14:45.162Z,101087.92
2017-08-16T08:17:16.202Z,101087.42
2017-08-16T08:19:47.146Z,101090.80
2017-08-16T08:22:20.254Z,101088.34
2017-08-16T08:24:56.180Z,101092.27
2017-08-16T08:27:30.961Z,101082.27
2017-08-16T08:30:04.087Z,101085.78
2017-08-16T08:32:35.102Z,101085.81
2017-08-16T08:35:06.097Z,101080.11
2017-08-16T08:37:37.903Z,101078.17
2017-08-16T08:40:10.992Z,101084.31
2017-08-16T08:42:41.971Z,101082.47
2017-08-16T08:45:13.226Z,101090.66
2017-08-16T08:47:44.237Z,101085.33
2017-08-16T08:50:17.289Z,101082.16
2017-08-16T08:52:48.582Z,101082.66
2017-08-16T08:55:19.555Z,101077.83
2017-08-16T08:57:50.912Z,101081.70
2017-08-16T09:00:23.113Z,101080.69
2017-08-16T09:02:57.160Z,101079.36
2017-08-16T09:05:28.257Z,101077.09
2017-08-16T09:08:07.371Z,101074.61
2017-08-16T09:10:38.367Z,101077.43
2017-08-16T09:13:09.648Z,101074.50
2017-08-16T09:15:40.864Z,101086.77
2017-08-16T09:18:13.695Z,101080.00
2017-08-16T09:20:44.678Z,101074.46
2017-08-16T09:23:15.969Z,101076.00
2017-08-16T09:25:47.127Z,101075.11
2017-08-16T09:28:18.825Z,101070.64
2017-08-16T09:30:50.541Z,101072.66
2017-08-16T09:33:21.702Z,101077.04
2017-08-16T09:35:52.697Z,101071.91
2017-08-16T09:38:23.997Z,101071.64
2017-08-16T09:40:58.594Z,101073.87
2017-08-16T09:43:29.584Z,101077.81
2017-08-16T09:46:03.566Z,101073.86
2017-08-16T09:48:34.525Z,101072.74
2017-08-16T09:51:05.665Z,101065.88
2017-08-16T09:53:36.917Z,101058.59
2017-08-16T09:56:12.162Z,101065.41
2017-08-16T09:58:44.251Z,101063.63
2017-08-16T10:01:16.215Z,101061.13
2017-08-16T10:03:47.448Z,101050.29
2017-08-16T10:06:18.507Z,101049.45
2017-08-16T10:08:49.790Z,101050.53
2017-08-16T10:11:21.379Z,101043.06
2017-08-16T10:13:52.387Z,101044.00
2017-08-16T10:16:23.703Z,101039.47
2017-08-16T10:18:58.402Z,101037.73
2017-08-16T10:21:29.395Z,101043.95
2017-08-16T10:24:05.008Z,101033.31
2017-08-16T10:26:36.182Z,101025.90
2017-08-16T10:32:45.759Z,101033.37
2017-08-16T10:35:16.956Z,101031.36
2017-08-16T10:37:49.500Z,101017.69
2017-08-16T10:40:20.590Z,101017.72
2017-08-16T10:42:52.825Z,101015.95
2017-08-16T10:45:24.353Z,101018.77
2017-08-16T10:48:03.088Z,101012.55
2017-08-16T10:50:36.341Z,101014.06
2017-08-16T10:53:07.699Z,101006.28
2017-08-16T10:55:38.735Z,101003.72
2017-08-16T10:58:10.554Z,101001.31
2017-08-16T11:00:41.727Z,101001.71
2017-08-16T11:03:13.069Z,100992.64
2017-08-16T11:05:44.931Z,100996.76
2017-08-16T11:08:20.993Z,100992.41
2017-08-16T11:10:52.693Z,100997.03
2017-08-16T11:13:23.790Z,100991.38
2017-08-16T11:15:57.196Z,100992.84
2017-08-16T11:18:28.861Z,100988.55
2017-08-16T11:21:03.876Z,100993.67
2017-08-16T11:23:34.920Z,100984.47
2017-08-16T11:26:07.593Z,100981.98
2017-08-16T11:28:38.901Z,100981.72
2017-08-16T11:31:10.742Z,100972.99
2017-08-16T11:33:41.731Z,100961.70
2017-08-16T11:36:16.206Z,100972.26
2017-08-16T11:38:47.565Z,100968.39
2017-08-16T11:41:18.622Z,100967.59
2017-08-16T11:43:50.025Z,100966.11
2017-08-16T11:46:22.132Z,100970.15
2017-08-16T11:48:55.690Z,100966.25
2017-08-16T11:51:27.991Z,100968.03
2017-08-16T11:54:00.872Z,100964.09
2017-08-16T11:56:31.971Z,100960.97
2017-08-16T11:59:05.273Z,100960.45
2017-08-16T12:01:36.378Z,100961.72
2017-08-16T12:04:09.931Z,100960.92
2017-08-16T12:06:42.374Z,100959.98
2017-08-16T12:09:13.369Z,100959.84
2017-08-16T12:11:44.406Z,100953.44
2017-08-16T12:14:16.490Z,100965.35
2017-08-16T12:16:49.194Z,100953.13
2017-08-16T12:19:20.183Z,100951.00
2017-08-16T12:21:51.485Z,100947.22
2017-08-16T12:24:23.127Z,100943.42
2017-08-16T12:26:56.415Z,100943.45
2017-08-16T12:29:27.590Z,100939.16
2017-08-16T12:32:03.222Z,100949.67
2017-08-16T12:34:34.520Z,100942.83
2017-08-16T12:37:06.500Z,100944.59
2017-08-16T12:39:37.959Z,100945.86
2017-08-16T12:42:13.704Z,100948.59
2017-08-16T12:44:44.661Z,100944.35
2017-08-16T12:47:16.013Z,100940.69
2017-08-16T12:49:47.138Z,100932.08
2017-08-16T12:52:19.750Z,100936.34
2017-08-16T12:54:52.397Z,100934.11
2017-08-16T12:57:23.468Z,100934.80
2017-08-16T12:59:55.673Z,100937.59
2017-08-16T13:02:27.624Z,100937.22
2017-08-16T13:05:05.765Z,100942.17
2017-08-16T13:07:37.158Z,100942.52
2017-08-16T13:10:09.826Z,100934.17
2017-08-16T13:12:42.050Z,100937.33
2017-08-16T13:15:13.219Z,100927.22
2017-08-16T13:17:44.758Z,100925.14
2017-08-16T13:20:16.033Z,100928.21
2017-08-16T13:22:47.226Z,100916.01
2017-08-16T13:25:18.556Z,100926.91
2017-08-16T13:27:49.628Z,100932.89
2017-08-16T13:30:23.213Z,100924.47
2017-08-16T13:32:56.830Z,100930.67
2017-08-16T13:35:33.419Z,100916.89
2017-08-16T13:38:20.729Z,100918.97
2017-08-16T13:40:51.739Z,100918.91
2017-08-16T13:43:22.761Z,100913.72
2017-08-16T13:45:55.478Z,100908.45
2017-08-16T13:48:26.884Z,100906.30
2017-08-16T13:51:04.642Z,100900.86
2017-08-16T13:53:36.286Z,100896.23
2017-08-16T13:56:08.513Z,100888.37
2017-08-16T13:58:40.009Z,100890.12
2017-08-16T14:01:11.269Z,100883.38
2017-08-16T14:03:42.922Z,100894.37
2017-08-16T14:06:14.575Z,100890.37
2017-08-16T14:08:46.065Z,100893.66
2017-08-16T14:11:17.067Z,100895.41
2017-08-16T14:13:48.066Z,100892.55
2017-08-16T14:16:20.305Z,100884.94
2017-08-16T14:18:51.328Z,100885.80
2017-08-16T14:21:22.315Z,100878.06
2017-08-16T14:23:55.992Z,100877.71
2017-08-16T14:26:28.115Z,100883.05
2017-08-16T14:29:03.271Z,100888.09
2017-08-16T14:31:34.286Z,100880.14
2017-08-16T14:34:07.342Z,100877.62
2017-08-16T14:36:38.340Z,100877.76
2017-08-16T14:39:09.337Z,100881.97
2017-08-16T14:41:41.246Z,100874.45
2017-08-16T14:44:14.448Z,100873.82
2017-08-16T14:46:45.614Z,100870.77
2017-08-16T14:49:17.618Z,100867.90
2017-08-16T14:51:48.601Z,100865.66
2017-08-16T14:54:21.420Z,100866.04
2017-08-16T14:56:52.591Z,100866.81
2017-08-16T14:59:23.800Z,100868.88
2017-08-16T15:01:57.398Z,100868.22
2017-08-16T15:04:29.568Z,100865.34
2017-08-16T15:07:03.469Z,100863.80
2017-08-16T15:09:34.569Z,100866.50
2017-08-16T15:12:09.959Z,100863.61
2017-08-16T15:14:40.981Z,100865.62
2017-08-16T15:17:12.036Z,100857.84
2017-08-16T15:19:43.633Z,100854.66
2017-08-16T15:22:16.756Z,100862.53
2017-08-16T15:24:47.758Z,100857.79
2017-08-16T15:27:19.050Z,100859.53
2017-08-16T15:29:50.054Z,100852.32
2017-08-16T15:32:21.907Z,100860.57
2017-08-16T15:34:53.483Z,100863.21
2017-08-16T15:37:24.791Z,100852.56
2017-08-16T15:40:00.139Z,100856.58
2017-08-16T15:42:31.469Z,100849.67
2017-08-16T15:46:32.813Z,100847.24
2017-08-16T15:49:04.517Z,100849.83
2017-08-16T15:51:35.514Z,100846.16
2017-08-16T15:54:07.785Z,100852.66
2017-08-16T15:56:39.278Z,100846.08
2017-08-16T15:59:10.385Z,100845.88
2017-08-16T16:01:41.417Z,100844.80
2017-08-16T16:04:15.699Z,100841.38
2017-08-16T16:06:46.705Z,100840.70
2017-08-16T16:09:17.748Z,100843.86
2017-08-16T16:11:48.898Z,100836.10
2017-08-16T16:14:20.201Z,100839.41
2017-08-16T16:16:51.329Z,100830.26
2017-08-16T16:19:22.677Z,100835.60
2017-08-16T16:21:54.010Z,100828.75
2017-08-16T16:24:25.105Z,100835.75
2017-08-16T16:26:59.823Z,100830.48
2017-08-16T16:32:12.954Z,100828.56
2017-08-16T16:34:44.230Z,100829.70
2017-08-16T16:37:15.217Z,100825.78
2017-08-16T16:39:46.238Z,100824.76
2017-08-16T16:42:19.174Z,100824.83
2017-08-16T16:44:50.453Z,100824.00
2017-08-16T16:47:21.547Z,100823.47
2017-08-16T16:49:52.732Z,100828.08
2017-08-16T16:52:24.414Z,100830.55
2017-08-16T16:54:59.228Z,100833.03
2017-08-16T16:57:30.334Z,100825.70
2017-08-16T17:00:09.076Z,100830.83
2017-08-16T17:02:40.959Z,100823.48
2017-08-16T17:05:12.658Z,100816.09
2017-08-16T17:07:43.718Z,100816.64
2017-08-16T17:10:15.843Z,100822.14
2017-08-16T17:12:48.229Z,100825.27
2017-08-16T17:15:19.502Z,100818.19
2017-08-16T17:17:50.487Z,100816.10
2017-08-16T17:20:22.522Z,100812.86
2017-08-16T17:22:53.649Z,100812.05
2017-08-16T17:25:25.196Z,100812.73
2017-08-16T17:27:59.224Z,100808.55
2017-08-16T17:30:31.305Z,100810.38
2017-08-16T17:35:43.466Z,100827.61
2017-08-16T17:38:16.153Z,100818.56
2017-08-16T17:40:47.399Z,100820.05
2017-08-16T17:43:18.449Z,100821.77
2017-08-16T17:45:49.435Z,100818.97
2017-08-16T17:48:20.857Z,100819.06
2017-08-16T17:50:51.915Z,100826.84
2017-08-16T17:53:22.918Z,100830.17
2017-08-16T17:55:55.077Z,100829.98
2017-08-16T17:58:27.269Z,100829.13
2017-08-16T18:01:02.795Z,100829.70
2017-08-16T18:03:34.090Z,100828.06
2017-08-16T18:06:07.589Z,100822.72
2017-08-16T18:08:38.710Z,100818.20
2017-08-16T18:11:11.026Z,100817.28
2017-08-16T18:13:44.053Z,100824.19
2017-08-16T18:16:15.855Z,100821.27
2017-08-16T18:18:47.266Z,100823.47
2017-08-16T18:21:18.575Z,100821.74
2017-08-16T18:23:49.686Z,100820.81
2017-08-16T18:26:23.989Z,100817.33
2017-08-16T18:28:56.912Z,100817.52
2017-08-16T18:31:28.148Z,100826.56
2017-08-16T18:34:05.025Z,100832.22
2017-08-16T18:36:36.142Z,100828.27
2017-08-16T18:39:07.538Z,100830.89
2017-08-16T18:41:39.063Z,100833.92
2017-08-16T18:44:15.678Z,100838.08
2017-08-16T18:46:46.898Z,100844.13
2017-08-16T18:49:18.467Z,100851.64
2017-08-16T18:51:49.617Z,100853.05
2017-08-16T18:54:21.373Z,100854.46
2017-08-16T18:56:52.462Z,100857.81
2017-08-16T18:59:23.829Z,100856.88
2017-08-16T19:02:01.044Z,100847.84
2017-08-16T19:04:33.200Z,100853.87
2017-08-16T19:07:05.518Z,100853.02
2017-08-16T19:09:36.652Z,100858.10
2017-08-16T19:12:21.287Z,100858.58
2017-08-16T19:14:52.544Z,100852.87
2017-08-16T19:17:33.340Z,100849.06
2017-08-16T19:20:22.875Z,100852.89
2017-08-16T19:23:04.296Z,100855.73
2017-08-16T19:25:39.185Z,100854.53
2017-08-16T19:31:04.521Z,100858.53
2017-08-16T19:33:42.337Z,100866.73
2017-08-16T19:36:22.235Z,100859.39
2017-08-16T19:39:08.382Z,100852.66
2017-08-16T19:41:56.632Z,100858.08
2017-08-16T19:44:38.532Z,100858.52
2017-08-16T19:47:17.890Z,100859.08
2017-08-16T19:49:54.714Z,100862.92
2017-08-16T19:52:29.838Z,100856.61
2017-08-16T19:55:09.697Z,100863.79
2017-08-16T19:57:49.104Z,100857.22
2017-08-16T20:00:38.763Z,100856.53
2017-08-16T20:03:16.392Z,100856.83
2017-08-16T20:06:01.703Z,100862.95
2017-08-16T20:08:37.737Z,100865.71
2017-08-16T20:11:13.262Z,100863.26
2017-08-16T20:13:51.228Z,100861.72
2017-08-16T20:16:25.377Z,100868.77
2017-08-16T20:19:06.093Z,100868.99
2017-08-16T20:21:43.034Z,100867.52
2017-08-16T20:24:17.102Z,100864.25
2017-08-16T20:26:48.935Z,100862.95
2017-08-16T20:29:20.446Z,100858.47
2017-08-16T20:31:52.340Z,100857.28
2017-08-16T20:34:23.666Z,100861.12
2017-08-16T20:36:57.693Z,100857.75
2017-08-16T20:39:29.561Z,100863.11
2017-08-16T20:42:06.947Z,100859.02
2017-08-16T20:44:38.675Z,100859.70
2017-08-16T20:47:09.975Z,100847.30
2017-08-16T20:49:41.175Z,100855.81
2017-08-16T20:52:13.281Z,100857.18
2017-08-16T20:54:44.836Z,100856.27
2017-08-16T20:57:16.627Z,100861.20
2017-08-16T20:59:47.977Z,100860.20
2017-08-16T21:02:22.275Z,100853.39
2017-08-16T21:04:53.908Z,100855.48
2017-08-16T21:07:25.710Z,100849.04
2017-08-16T21:09:58.523Z,100849.10
2017-08-16T21:12:30.275Z,100851.13
2017-08-16T21:15:06.850Z,100852.17
2017-08-16T21:17:39.797Z,100852.46
2017-08-16T21:20:14.543Z,100849.48
2017-08-16T21:22:45.766Z,100850.42
2017-08-16T21:25:17.880Z,100847.47
2017-08-16T21:27:49.091Z,100849.13
2017-08-16T21:30:28.519Z,100855.01
2017-08-16T21:33:05.617Z,100852.88
2017-08-16T21:35:38.329Z,100851.82
2017-08-16T21:38:14.886Z,100850.01
2017-08-16T21:40:45.922Z,100856.44
2017-08-16T21:43:17.029Z,100855.53
2017-08-16T21:45:48.095Z,100855.53
2017-08-16T21:48:22.218Z,100853.54
2017-08-16T21:50:53.273Z,100848.38
2017-08-16T21:53:24.407Z,100840.20
2017-08-16T21:55:56.511Z,100838.00
2017-08-16T21:58:27.831Z,100832.78
2017-08-16T22:02:29.390Z,100830.03
2017-08-16T22:05:03.079Z,100824.25
2017-08-16T22:07:34.103Z,100820.61
2017-08-16T22:10:07.104Z,100816.72
2017-08-16T22:12:38.096Z,100811.96
2017-08-16T22:15:09.515Z,100815.51
2017-08-16T22:17:40.594Z,100803.89
2017-08-16T22:20:12.202Z,100796.93
2017-08-16T22:23:13.928Z,100787.45
2017-08-16T22:25:44.950Z,100782.05
2017-08-16T22:28:19.239Z,100785.43
2017-08-16T22:30:52.648Z,100782.91
2017-08-16T22:33:23.661Z,100790.67
2017-08-16T22:35:54.981Z,100789.84
2017-08-16T22:38:26.674Z,100786.03
2017-08-16T22:41:00.376Z,100788.17
2017-08-16T22:43:31.356Z,100789.73
2017-08-16T22:46:03.917Z,100781.16
2017-08-16T22:48:35.264Z,100784.06
2017-08-16T22:51:06.358Z,100777.55
2017-08-16T22:53:37.852Z,100780.66
2017-08-16T22:56:08.954Z,100782.22
2017-08-16T22:58:39.973Z,100779.63
2017-08-16T23:01:11.515Z,100777.66
2017-08-16T23:03:43.494Z,100772.47
2017-08-16T23:06:16.205Z,100774.35
2017-08-16T23:08:48.642Z,100770.82
2017-08-16T23:11:19.734Z,100766.11
2017-08-16T23:13:50.849Z,100760.64
2017-08-16T23:16:23.253Z,100752.14
2017-08-16T23:18:55.554Z,100753.20
2017-08-16T23:21:26.619Z,100749.14
2017-08-16T23:24:02.855Z,100744.98
2017-08-16T23:26:34.052Z,100736.41
2017-08-16T23:29:05.265Z,100742.34
2017-08-16T23:31:36.822Z,100734.85
2017-08-16T23:34:10.204Z,100737.25
2017-08-16T23:36:41.361Z,100742.17
2017-08-16T23:39:12.726Z,100741.60
2017-08-16T23:41:43.941Z,100746.47
2017-08-16T23:44:15.805Z,100738.48
2017-08-16T23:46:47.165Z,100748.13
2017-08-16T23:49:18.331Z,100749.77
2017-08-16T23:51:49.350Z,100749.89
2017-08-16T23:54:21.255Z,100748.28
2017-08-16T23:56:52.603Z,100748.77
2017-08-16T23:59:24.051Z,100752.02
